Time;durP1;ratioP1;P1;durP2;ratioP2;P2;SDS_P1;SDS_P2;PMS_P1;PMS_P2;Temp;Humidity;BMP_temperature;BMP_pressure;BME280_temperature;BME280_humidity;BME280_pressure;Samples;Min_cycle;Max_cycle;Signal;HPM_P1;HPM_P2
2023/06/22 00:00:49;;;;;;;5.82;3.70;;;21.80;85.50;;;;;;4997085;28;20426;-86
2023/06/22 00:03:16;;;;;;;5.60;3.97;;;21.80;85.50;;;;;;5014620;28;20102;-85
2023/06/22 00:05:42;;;;;;;5.72;3.83;;;21.90;85.50;;;;;;4978277;28;20803;-85
2023/06/22 00:08:07;;;;;;;6.53;4.10;;;21.80;85.40;;;;;;4977239;28;20066;-86
2023/06/22 00:10:33;;;;;;;6.00;4.05;;;21.90;85.40;;;;;;4977151;28;20034;-86
2023/06/22 00:12:58;;;;;;;6.18;3.92;;;21.90;85.40;;;;;;4977435;28;20030;-86
2023/06/22 00:15:24;;;;;;;6.32;4.18;;;21.80;85.40;;;;;;4993773;28;20037;-87
2023/06/22 00:17:50;;;;;;;6.10;4.10;;;21.80;85.60;;;;;;5000067;28;20452;-86
2023/06/22 00:20:17;;;;;;;5.97;3.63;;;21.80;85.70;;;;;;4996339;28;20021;-86
2023/06/22 00:22:43;;;;;;;6.13;3.88;;;21.80;85.80;;;;;;5014241;28;20022;-86
2023/06/22 00:25:10;;;;;;;6.35;3.85;;;21.80;85.90;;;;;;5002355;28;20100;-86
2023/06/22 00:27:36;;;;;;;5.95;3.67;;;21.70;85.90;;;;;;4997648;28;20033;-87
2023/06/22 00:30:02;;;;;;;5.85;3.92;;;21.70;85.90;;;;;;4976195;28;20129;-86
2023/06/22 00:32:28;;;;;;;5.80;3.90;;;21.70;85.90;;;;;;4976673;28;20050;-86
2023/06/22 00:34:53;;;;;;;5.45;3.67;;;21.70;85.90;;;;;;4989432;28;20065;-86
2023/06/22 00:37:19;;;;;;;6.22;4.30;;;21.70;86.00;;;;;;4982331;28;20117;-87
2023/06/22 00:39:44;;;;;;;5.82;4.03;;;21.70;86.00;;;;;;4981180;28;20102;-86
2023/06/22 00:42:10;;;;;;;6.10;3.90;;;21.70;86.00;;;;;;4976777;28;20034;-87
2023/06/22 00:44:36;;;;;;;6.25;4.00;;;21.70;86.00;;;;;;4970593;28;20034;-85
2023/06/22 00:47:02;;;;;;;6.30;3.80;;;21.70;86.20;;;;;;4965191;28;20078;-86
2023/06/22 00:49:28;;;;;;;5.95;3.95;;;21.70;86.00;;;;;;4974680;28;20059;-85
2023/06/22 00:51:54;;;;;;;5.55;3.70;;;21.70;86.00;;;;;;4957714;28;20106;-85
2023/06/22 00:54:24;;;;;;;5.72;3.47;;;21.60;86.00;;;;;;4961417;28;20030;-87
2023/06/22 00:56:57;;;;;;;5.57;3.72;;;21.70;86.00;;;;;;4981803;28;20487;-86
2023/06/22 00:59:24;;;;;;;5.43;3.50;;;21.70;86.10;;;;;;4995894;28;20036;-86
2023/06/22 01:01:49;;;;;;;5.57;3.78;;;21.70;86.10;;;;;;4995728;28;20022;-86
2023/06/22 01:04:15;;;;;;;7.53;4.07;;;21.70;86.10;;;;;;4989729;28;20367;-86
2023/06/22 01:07:25;;;;;;;6.45;4.15;;;21.70;86.20;;;;;;4991256;28;20042;-87
2023/06/22 01:10:05;;;;;;;6.35;3.80;;;21.70;86.10;;;;;;4979771;28;20034;-86
2023/06/22 01:12:38;;;;;;;6.00;4.00;;;21.70;86.10;;;;;;4976245;28;20033;-87
2023/06/22 01:15:10;;;;;;;5.80;4.00;;;21.70;86.10;;;;;;4972622;28;20125;-86
2023/06/22 01:17:38;;;;;;;5.50;3.60;;;21.70;85.90;;;;;;4972835;28;20018;-88
2023/06/22 01:20:05;;;;;;;5.97;3.80;;;21.80;85.90;;;;;;4993731;28;20022;-87
2023/06/22 01:22:38;;;;;;;5.50;3.53;;;21.80;85.80;;;;;;4995626;28;20022;-86
2023/06/22 01:25:14;;;;;;;6.43;3.95;;;21.80;85.70;;;;;;4981862;28;20031;-87
2023/06/22 01:28:02;;;;;;;6.28;4.03;;;21.80;85.60;;;;;;4987318;28;20524;-86
2023/06/22 01:30:29;;;;;;;6.13;4.13;;;21.80;85.50;;;;;;4995353;28;20483;-86
2023/06/22 01:32:57;;;;;;;5.70;3.70;;;21.80;85.50;;;;;;5012933;28;20034;-86
2023/06/22 01:35:23;;;;;;;5.93;3.75;;;21.90;85.60;;;;;;4976358;28;20031;-85
2023/06/22 01:37:49;;;;;;;6.25;4.00;;;21.80;85.50;;;;;;4975537;28;20033;-86
2023/06/22 01:40:16;;;;;;;6.03;3.90;;;21.80;85.50;;;;;;5012154;28;20026;-86
2023/06/22 01:42:43;;;;;;;6.05;4.03;;;21.80;85.40;;;;;;4995313;28;20025;-86
2023/06/22 01:45:11;;;;;;;6.65;4.20;;;21.80;85.60;;;;;;4993693;28;20031;-86
2023/06/22 01:47:37;;;;;;;6.30;4.43;;;21.70;85.70;;;;;;4983991;28;20018;-85
2023/06/22 01:50:03;;;;;;;6.60;4.38;;;21.70;85.80;;;;;;4977799;28;20023;-85
2023/06/22 01:52:29;;;;;;;6.63;4.95;;;21.70;85.90;;;;;;4975596;28;20023;-85
2023/06/22 01:54:54;;;;;;;7.03;4.45;;;21.70;86.00;;;;;;4987039;28;20030;-86
2023/06/22 01:57:20;;;;;;;5.95;3.95;;;21.70;86.00;;;;;;4984454;28;20105;-86
2023/06/22 02:00:03;;;;;;;7.45;4.38;;;21.70;86.00;;;;;;4995075;28;20368;-86
2023/06/22 02:02:36;;;;;;;6.50;3.90;;;21.70;86.00;;;;;;5012883;28;20475;-85
2023/06/22 02:05:07;;;;;;;6.07;4.00;;;21.70;86.10;;;;;;4982317;28;20403;-85
2023/06/22 02:07:38;;;;;;;5.78;3.67;;;21.70;86.20;;;;;;4959669;28;20618;-86
2023/06/22 02:10:05;;;;;;;;;;;21.60;86.10;;;;;;4973854;28;20126;-86
2023/06/22 02:12:32;;;;;;;5.90;3.80;;;21.60;86.10;;;;;;4956088;28;19910;-85
2023/06/22 02:15:00;;;;;;;6.25;3.75;;;21.60;86.10;;;;;;4965259;28;20023;-85
2023/06/22 02:17:26;;;;;;;6.35;4.00;;;21.70;86.20;;;;;;4987688;28;20502;-86
2023/06/22 02:19:52;;;;;;;6.82;4.43;;;21.60;86.10;;;;;;4994881;28;20037;-85
2023/06/22 02:22:17;;;;;;;7.00;4.35;;;21.60;86.10;;;;;;4994976;28;20026;-85
2023/06/22 02:24:43;;;;;;;5.93;3.90;;;21.60;86.10;;;;;;5000070;28;20030;-85
2023/06/22 02:27:09;;;;;;;6.15;4.07;;;21.60;86.20;;;;;;4971468;28;20411;-85
2023/06/22 02:29:34;;;;;;;6.22;3.97;;;21.60;86.10;;;;;;4970651;28;20034;-85
2023/06/22 02:31:59;;;;;;;6.07;4.05;;;21.70;86.20;;;;;;4975487;28;20022;-85
2023/06/22 02:34:25;;;;;;;6.00;4.07;;;21.60;86.10;;;;;;4974606;28;20431;-86
2023/06/22 02:36:51;;;;;;;6.03;3.92;;;21.70;86.20;;;;;;4981059;28;20018;-86
2023/06/22 02:39:22;;;;;;;5.82;4.00;;;21.70;86.20;;;;;;4975423;28;20110;-86
2023/06/22 02:41:51;;;;;;;;;;;21.70;86.20;;;;;;4993439;28;20018;-85
2023/06/22 02:44:18;;;;;;;6.65;4.50;;;21.70;86.00;;;;;;4975189;28;19922;-86
2023/06/22 02:46:44;;;;;;;5.72;3.90;;;21.70;86.00;;;;;;4975164;28;20030;-86
2023/06/22 02:49:10;;;;;;;6.30;4.40;;;21.80;85.90;;;;;;4992687;28;20049;-87
2023/06/22 02:51:39;;;;;;;5.85;4.07;;;21.80;85.80;;;;;;4975423;28;20068;-86
2023/06/22 02:54:05;;;;;;;5.93;4.03;;;21.70;85.70;;;;;;4975369;28;20125;-85
2023/06/22 02:56:31;;;;;;;6.18;4.30;;;21.80;85.70;;;;;;4987609;28;20101;-86
2023/06/22 02:59:00;;;;;;;6.13;3.80;;;21.80;85.60;;;;;;4978790;28;20448;-85
2023/06/22 03:01:27;;;;;;;6.00;3.92;;;21.80;85.60;;;;;;4978770;28;20034;-86
2023/06/22 03:03:53;;;;;;;6.18;4.30;;;21.80;85.50;;;;;;4994299;28;20057;-86
2023/06/22 03:06:22;;;;;;;6.53;4.22;;;21.80;85.50;;;;;;4975245;28;20057;-86
2023/06/22 03:08:49;;;;;;;6.93;4.78;;;21.80;85.60;;;;;;4997922;28;20061;-85
2023/06/22 03:11:14;;;;;;;6.30;4.57;;;21.80;85.60;;;;;;4998223;28;20048;-86
2023/06/22 03:13:39;;;;;;;6.80;4.82;;;21.70;85.70;;;;;;4995768;28;20387;-85
2023/06/22 03:16:05;;;;;;;7.00;4.78;;;21.70;85.80;;;;;;4987042;28;20030;-85
2023/06/22 03:18:30;;;;;;;6.47;4.72;;;21.70;86.00;;;;;;4978222;28;20030;-86
2023/06/22 03:20:56;;;;;;;7.00;4.60;;;21.70;86.00;;;;;;4978554;28;20054;-86
2023/06/22 03:23:21;;;;;;;6.35;4.43;;;21.70;86.00;;;;;;4978322;28;20506;-86
2023/06/22 03:25:47;;;;;;;7.13;4.30;;;21.60;86.50;;;;;;4969361;28;20042;-86
2023/06/22 03:28:12;;;;;;;6.53;4.60;;;21.70;86.10;;;;;;4981205;28;21693;-86
2023/06/22 03:30:38;;;;;;;6.65;4.38;;;21.60;86.00;;;;;;4997638;28;20113;-85
2023/06/22 03:33:03;;;;;;;6.18;4.53;;;21.60;86.60;;;;;;4997137;28;20026;-85
2023/06/22 03:35:29;;;;;;;7.25;4.80;;;21.70;86.20;;;;;;4988516;28;20031;-84
2023/06/22 03:37:54;;;;;;;6.50;4.50;;;21.60;86.10;;;;;;4985154;28;20029;-84
2023/06/22 03:40:20;;;;;;;6.43;4.53;;;21.60;86.20;;;;;;4997577;28;20142;-85
2023/06/22 03:42:46;;;;;;;5.90;4.18;;;21.70;86.20;;;;;;4997275;28;20426;-85
2023/06/22 03:45:12;;;;;;;6.57;4.53;;;21.60;86.10;;;;;;4980721;28;20403;-85
2023/06/22 03:47:37;;;;;;;6.63;4.55;;;21.60;86.10;;;;;;4991633;28;20032;-84
2023/06/22 03:50:06;;;;;;;7.10;4.40;;;21.60;86.10;;;;;;5015117;28;20043;-85
2023/06/22 03:52:32;;;;;;;6.63;4.35;;;21.70;86.20;;;;;;4997201;28;20026;-85
2023/06/22 03:54:57;;;;;;;6.75;4.32;;;21.70;86.10;;;;;;4984713;28;20038;-85
2023/06/22 03:57:23;;;;;;;5.95;4.22;;;21.60;86.10;;;;;;4980739;28;20031;-84
2023/06/22 03:59:48;;;;;;;6.20;4.50;;;21.60;86.10;;;;;;4956529;28;20027;-88
2023/06/22 04:02:14;;;;;;;5.95;4.18;;;21.60;86.10;;;;;;4955121;28;20026;-86
2023/06/22 04:04:39;;;;;;;6.28;4.47;;;21.60;86.10;;;;;;4960626;28;20046;-88
2023/06/22 04:07:05;;;;;;;6.97;4.63;;;21.70;86.20;;;;;;4993608;28;20880;-87
2023/06/22 04:09:31;;;;;;;7.85;4.57;;;21.60;86.10;;;;;;5006919;28;20491;-88
2023/06/22 04:11:56;;;;;;;6.45;4.32;;;21.60;86.00;;;;;;4975953;28;20041;-87
2023/06/22 04:14:22;;;;;;;6.60;4.45;;;21.70;85.90;;;;;;4972443;28;20033;-88
2023/06/22 04:16:48;;;;;;;6.60;4.80;;;21.70;85.80;;;;;;4995515;28;20403;-88
2023/06/22 04:19:16;;;;;;;6.22;4.35;;;21.70;85.80;;;;;;4995294;28;20018;-88
2023/06/22 04:21:44;;;;;;;6.53;4.38;;;21.80;85.70;;;;;;4995357;28;20116;-84
2023/06/22 04:24:10;;;;;;;6.35;4.28;;;21.70;85.60;;;;;;4989013;28;20149;-84
2023/06/22 04:26:36;;;;;;;6.20;4.32;;;22.20;85.80;;;;;;4981865;28;20057;-86
2023/06/22 04:29:05;;;;;;;6.55;4.10;;;21.70;85.50;;;;;;4976238;28;20031;-84
2023/06/22 04:31:31;;;;;;;6.68;4.57;;;21.80;85.50;;;;;;4955555;28;20027;-83
2023/06/22 04:34:05;;;;;;;6.43;4.53;;;21.80;85.50;;;;;;4958559;28;20034;-85
2023/06/22 04:36:36;;;;;;;7.13;4.82;;;21.80;85.50;;;;;;4996117;28;20022;-85
2023/06/22 04:39:02;;;;;;;6.60;4.80;;;21.80;85.60;;;;;;4993842;28;20569;-85
2023/06/22 04:41:28;;;;;;;6.40;4.43;;;21.70;85.60;;;;;;4992877;28;20046;-83
2023/06/22 04:43:53;;;;;;;6.57;4.78;;;21.70;85.70;;;;;;4975127;28;20040;-85
2023/06/22 04:46:19;;;;;;;6.93;5.20;;;21.70;85.80;;;;;;4987691;28;20340;-85
2023/06/22 04:48:45;;;;;;;7.05;5.18;;;21.70;85.90;;;;;;5012947;28;20477;-85
2023/06/22 04:51:10;;;;;;;6.70;4.80;;;21.70;85.90;;;;;;5012711;28;20030;-85
2023/06/22 04:53:36;;;;;;;6.78;4.72;;;21.60;85.90;;;;;;4992892;28;20025;-83
2023/06/22 04:56:04;;;;;;;6.47;4.70;;;21.80;85.90;;;;;;4964203;28;20494;-84
2023/06/22 04:58:32;;;;;;;6.50;4.78;;;21.60;85.90;;;;;;5008934;28;20022;-85
2023/06/22 05:00:58;;;;;;;7.05;5.07;;;21.60;85.90;;;;;;4977378;28;20086;-84
2023/06/22 05:03:25;;;;;;;6.63;4.90;;;21.60;85.90;;;;;;4978953;28;20505;-87
2023/06/22 05:05:52;;;;;;;6.65;4.80;;;21.60;85.80;;;;;;4982529;28;20033;-83
2023/06/22 05:08:17;;;;;;;7.47;5.13;;;21.60;85.80;;;;;;4983591;28;20025;-86
2023/06/22 05:10:43;;;;;;;7.65;5.35;;;21.60;85.80;;;;;;4989509;28;20414;-85
2023/06/22 05:13:08;;;;;;;6.70;4.35;;;21.60;85.80;;;;;;4995503;28;20034;-85
2023/06/22 05:15:39;;;;;;;7.10;4.90;;;21.60;85.80;;;;;;4974970;28;20044;-82
2023/06/22 05:18:06;;;;;;;8.15;5.15;;;21.60;85.80;;;;;;5008761;28;20026;-84
2023/06/22 05:20:31;;;;;;;7.10;5.25;;;21.70;85.80;;;;;;4994985;28;20382;-85
2023/06/22 05:22:57;;;;;;;6.93;4.90;;;21.70;85.80;;;;;;4992290;28;20026;-85
2023/06/22 05:25:22;;;;;;;7.22;4.78;;;21.60;85.80;;;;;;4980390;28;20571;-84
2023/06/22 05:27:48;;;;;;;8.18;4.75;;;21.60;85.80;;;;;;4994602;28;20026;-84
2023/06/22 05:30:13;;;;;;;6.68;5.20;;;21.60;85.80;;;;;;4996115;28;20061;-84
2023/06/22 05:32:39;;;;;;;6.88;4.90;;;21.70;85.80;;;;;;5000344;28;20036;-84
2023/06/22 05:35:04;;;;;;;7.22;5.15;;;21.70;85.80;;;;;;4985283;28;20307;-86
2023/06/22 05:37:30;;;;;;;7.20;5.20;;;21.70;85.70;;;;;;4981427;28;20031;-85
2023/06/22 05:39:57;;;;;;;6.95;5.03;;;21.70;85.60;;;;;;4993747;28;20022;-84
2023/06/22 05:42:25;;;;;;;8.00;5.13;;;21.70;85.40;;;;;;4997409;28;20474;-86
2023/06/22 05:44:58;;;;;;;6.85;5.13;;;21.70;85.30;;;;;;4987153;28;20046;-85
2023/06/22 05:47:24;;;;;;;6.85;5.03;;;22.40;85.60;;;;;;4985950;28;20022;-86
2023/06/22 05:49:49;;;;;;;7.45;5.40;;;21.80;85.10;;;;;;4976164;28;20398;-84
2023/06/22 05:52:15;;;;;;;7.25;5.55;;;21.80;84.90;;;;;;4994838;28;20030;-87
2023/06/22 05:54:41;;;;;;;7.22;5.25;;;22.70;85.40;;;;;;4970274;28;20423;-85
2023/06/22 05:57:07;;;;;;;7.53;4.90;;;21.90;84.80;;;;;;4964277;28;20061;-86
2023/06/22 05:59:32;;;;;;;7.43;5.68;;;21.90;84.80;;;;;;4973941;28;20031;-85
2023/06/22 06:01:58;;;;;;;7.50;5.00;;;23.50;85.70;;;;;;4955296;28;20027;-86
2023/06/22 06:04:38;;;;;;;7.45;5.78;;;21.80;84.60;;;;;;4960499;28;20031;-84
2023/06/22 06:07:11;;;;;;;7.28;5.47;;;22.60;85.10;;;;;;4979209;28;20026;-84
2023/06/22 06:09:36;;;;;;;7.32;5.70;;;22.50;85.10;;;;;;5014333;28;20041;-85
2023/06/22 06:12:08;;;;;;;7.50;5.80;;;22.00;84.90;;;;;;5013185;28;20040;-85
2023/06/22 06:14:56;;;;;;;7.28;5.38;;;21.90;84.80;;;;;;4996247;28;20547;-88
2023/06/22 06:17:48;;;;;;;7.13;5.32;;;23.50;85.90;;;;;;4961612;28;20488;-87
2023/06/22 06:20:20;;;;;;;6.82;5.43;;;21.70;84.90;;;;;;4991962;28;20041;-85
2023/06/22 06:22:45;;;;;;;9.10;5.65;;;21.80;85.00;;;;;;4993444;28;20018;-87
2023/06/22 06:25:15;;;;;;;7.28;5.60;;;21.90;85.10;;;;;;4978888;28;20050;-87
2023/06/22 06:27:48;;;;;;;7.05;5.40;;;21.80;85.00;;;;;;4984061;28;20136;-87
2023/06/22 06:30:17;;;;;;;7.60;5.80;;;21.80;84.90;;;;;;5015656;28;20049;-85
2023/06/22 06:32:45;;;;;;;7.47;5.70;;;21.80;84.90;;;;;;4997514;28;20088;-87
2023/06/22 06:35:12;;;;;;;8.02;5.80;;;21.90;85.00;;;;;;4986254;28;20022;-87
2023/06/22 06:37:39;;;;;;;7.53;5.85;;;21.60;84.90;;;;;;4981959;28;20030;-87
2023/06/22 06:40:10;;;;;;;7.05;5.60;;;22.20;85.20;;;;;;4995684;28;20406;-87
2023/06/22 06:42:54;;;;;;;8.90;5.82;;;21.80;85.00;;;;;;4998207;28;20105;-85
2023/06/22 06:45:22;;;;;;;7.88;5.88;;;21.80;84.90;;;;;;4978877;28;20062;-87
2023/06/22 06:47:48;;;;;;;7.57;5.90;;;21.80;85.00;;;;;;4993704;28;20613;-87
2023/06/22 06:50:14;;;;;;;7.68;5.57;;;21.90;85.10;;;;;;5015851;28;20045;-87
2023/06/22 06:52:40;;;;;;;8.40;6.03;;;21.90;85.10;;;;;;4997993;28;20026;-86
2023/06/22 06:55:10;;;;;;;7.78;5.80;;;21.80;85.10;;;;;;5004012;28;20031;-87
2023/06/22 06:57:37;;;;;;;7.18;5.68;;;21.80;85.10;;;;;;4983731;28;20054;-87
2023/06/22 07:00:09;;;;;;;7.43;5.70;;;21.90;85.20;;;;;;4979500;28;20027;-88
2023/06/22 07:02:34;;;;;;;7.45;6.00;;;21.80;85.10;;;;;;4998033;28;20483;-87
2023/06/22 07:05:00;;;;;;;7.72;5.60;;;21.80;85.20;;;;;;4979797;28;20030;-85
2023/06/22 07:07:25;;;;;;;6.68;5.30;;;21.80;85.20;;;;;;4980267;28;20026;-86
2023/06/22 07:09:51;;;;;;;7.80;5.68;;;21.80;85.00;;;;;;4994139;28;20038;-86
2023/06/22 07:12:19;;;;;;;8.10;6.15;;;21.80;85.00;;;;;;5015196;28;20029;-88
2023/06/22 07:14:45;;;;;;;7.63;6.00;;;21.90;84.90;;;;;;5001165;28;20030;-87
2023/06/22 07:17:10;;;;;;;7.65;5.88;;;22.00;84.90;;;;;;4993315;28;20031;-82
2023/06/22 07:19:36;;;;;;;7.55;5.80;;;21.90;84.70;;;;;;5017622;28;20030;-82
2023/06/22 07:22:01;;;;;;;8.25;5.80;;;21.90;84.60;;;;;;4999038;28;20173;-81
2023/06/22 07:24:27;;;;;;;8.02;5.97;;;21.90;84.60;;;;;;4992497;28;20026;-82
2023/06/22 07:26:52;;;;;;;7.30;5.68;;;21.90;84.70;;;;;;4989230;28;20090;-82
2023/06/22 07:29:20;;;;;;;7.40;5.50;;;22.00;84.60;;;;;;4994245;28;20482;-81
2023/06/22 07:31:45;;;;;;;8.05;6.20;;;22.00;84.60;;;;;;5003149;28;20040;-81
2023/06/22 07:34:11;;;;;;;7.45;5.68;;;22.00;84.70;;;;;;4995595;28;20027;-82
2023/06/22 07:36:36;;;;;;;7.90;5.93;;;21.90;84.60;;;;;;4978476;28;20060;-81
2023/06/22 07:39:03;;;;;;;7.90;6.15;;;21.80;84.70;;;;;;5000139;28;20030;-84
2023/06/22 07:41:29;;;;;;;7.20;6.00;;;21.80;84.80;;;;;;4990825;28;20285;-81
2023/06/22 07:43:54;;;;;;;7.50;5.95;;;21.80;85.00;;;;;;4979184;28;20472;-81
2023/06/22 07:46:20;;;;;;;7.90;6.00;;;21.80;85.00;;;;;;4990173;28;20037;-81
2023/06/22 07:48:45;;;;;;;7.80;5.97;;;21.80;85.10;;;;;;4994277;28;20023;-81
2023/06/22 07:51:14;;;;;;;7.80;6.13;;;21.80;85.20;;;;;;4979083;28;20104;-82
2023/06/22 07:53:44;;;;;;;7.88;6.07;;;21.70;85.20;;;;;;4977993;28;20054;-79
2023/06/22 07:56:13;;;;;;;7.93;5.97;;;21.80;85.20;;;;;;4992322;28;20438;-81
2023/06/22 07:58:39;;;;;;;8.55;6.50;;;21.80;85.30;;;;;;4990163;28;20026;-81
2023/06/22 08:01:06;;;;;;;8.35;5.85;;;21.70;85.30;;;;;;4999433;28;20021;-82
2023/06/22 08:03:31;;;;;;;7.85;6.03;;;21.70;85.30;;;;;;4999924;28;20490;-79
2023/06/22 08:05:57;;;;;;;7.55;6.00;;;21.80;85.40;;;;;;4989159;28;20037;-82
2023/06/22 08:08:23;;;;;;;7.97;6.20;;;21.70;85.30;;;;;;4983184;28;20058;-80
2023/06/22 08:10:49;;;;;;;8.18;6.30;;;21.70;85.30;;;;;;5000446;28;20514;-82
2023/06/22 08:13:14;;;;;;;8.15;6.35;;;21.80;85.40;;;;;;4990751;28;20038;-81
2023/06/22 08:15:40;;;;;;;8.05;6.13;;;21.80;85.40;;;;;;4995677;28;20030;-81
2023/06/22 08:18:05;;;;;;;7.88;6.13;;;21.80;85.30;;;;;;4992642;28;20034;-81
2023/06/22 08:20:31;;;;;;;8.38;6.22;;;21.80;85.30;;;;;;5004945;28;20030;-82
2023/06/22 08:22:58;;;;;;;8.18;6.18;;;21.80;85.30;;;;;;5004655;28;20598;-81
2023/06/22 08:25:23;;;;;;;8.13;5.82;;;21.80;85.30;;;;;;4993402;28;20030;-82
2023/06/22 08:27:49;;;;;;;8.07;6.15;;;21.80;85.30;;;;;;4993953;28;20072;-81
2023/06/22 08:30:16;;;;;;;7.68;5.97;;;21.80;85.30;;;;;;4984906;28;20109;-82
2023/06/22 08:32:41;;;;;;;7.95;6.03;;;21.70;85.20;;;;;;4984448;28;20085;-82
2023/06/22 08:35:10;;;;;;;7.95;5.95;;;21.80;85.10;;;;;;5001209;28;20046;-82
2023/06/22 08:37:36;;;;;;;7.40;5.65;;;21.90;85.00;;;;;;4989621;28;20061;-82
2023/06/22 08:40:10;;;;;;;7.65;5.95;;;22.00;84.90;;;;;;4983072;28;20092;-82
2023/06/22 08:42:41;;;;;;;6.82;5.57;;;22.00;84.70;;;;;;5005479;28;20096;-82
2023/06/22 08:45:07;;;;;;;8.25;5.80;;;22.00;84.50;;;;;;4981572;28;20102;-82
2023/06/22 08:47:33;;;;;;;7.80;6.13;;;22.00;84.40;;;;;;4966626;28;20047;-81
2023/06/22 08:49:58;;;;;;;7.78;5.68;;;22.00;84.30;;;;;;4995473;28;20397;-82
2023/06/22 08:52:24;;;;;;;7.45;5.88;;;22.10;84.30;;;;;;5001429;28;20554;-81
2023/06/22 08:54:50;;;;;;;7.65;5.97;;;22.10;84.70;;;;;;4989869;28;20101;-82
2023/06/22 08:57:15;;;;;;;8.00;6.03;;;22.10;84.10;;;;;;5000696;28;20026;-82
2023/06/22 08:59:41;;;;;;;8.25;5.90;;;22.10;84.10;;;;;;4987484;28;20026;-82
2023/06/22 09:02:07;;;;;;;8.50;6.30;;;22.10;84.10;;;;;;4981630;28;20023;-81
2023/06/22 09:04:34;;;;;;;8.13;6.22;;;22.10;84.20;;;;;;4981579;28;20041;-81
2023/06/22 09:07:00;;;;;;;8.55;6.10;;;22.70;84.60;;;;;;4979051;28;20040;-82
2023/06/22 09:09:26;;;;;;;8.90;6.28;;;22.10;84.30;;;;;;5005836;28;20062;-82
2023/06/22 09:11:52;;;;;;;7.95;5.43;;;22.20;84.50;;;;;;4998023;28;20034;-83
2023/06/22 09:14:17;;;;;;;8.55;5.75;;;22.00;84.40;;;;;;4981051;28;20034;-82
2023/06/22 09:16:43;;;;;;;8.48;5.85;;;22.10;84.50;;;;;;4990165;28;20033;-82
2023/06/22 09:19:08;;;;;;;8.52;6.30;;;22.30;84.50;;;;;;5001356;28;20621;-80
2023/06/22 09:21:34;;;;;;;11.43;6.38;;;22.10;84.40;;;;;;4998307;28;20029;-83
2023/06/22 09:23:59;;;;;;;8.10;6.18;;;22.10;84.40;;;;;;4992864;28;20062;-82
2023/06/22 09:26:25;;;;;;;9.30;5.95;;;22.10;84.40;;;;;;4997548;28;20116;-82
2023/06/22 09:28:51;;;;;;;12.25;6.65;;;22.10;84.40;;;;;;4985636;28;20093;-80
2023/06/22 09:31:16;;;;;;;11.77;6.60;;;22.10;84.60;;;;;;5012771;28;20029;-82
2023/06/22 09:33:42;;;;;;;15.57;6.63;;;22.10;84.60;;;;;;4998128;28;20029;-81
2023/06/22 09:36:08;;;;;;;11.65;6.93;;;22.10;84.60;;;;;;4978701;28;20041;-80
2023/06/22 09:38:37;;;;;;;11.82;7.00;;;22.10;84.60;;;;;;4988494;28;20018;-82
2023/06/22 09:41:03;;;;;;;11.38;7.00;;;22.20;84.60;;;;;;4979708;28;20030;-81
2023/06/22 09:43:29;;;;;;;11.38;6.47;;;22.20;84.50;;;;;;4982840;28;20073;-82
2023/06/22 09:45:55;;;;;;;10.35;6.40;;;22.20;84.40;;;;;;4988182;28;20034;-81
2023/06/22 09:48:20;;;;;;;11.50;6.93;;;22.20;84.40;;;;;;4992465;28;20041;-82
2023/06/22 09:50:46;;;;;;;11.85;6.75;;;22.20;84.40;;;;;;5001299;28;20121;-81
2023/06/22 09:53:11;;;;;;;9.50;6.18;;;22.20;84.40;;;;;;5000263;28;20070;-82
2023/06/22 09:55:37;;;;;;;11.10;6.63;;;22.20;84.40;;;;;;4982119;28;20034;-82
2023/06/22 09:58:02;;;;;;;10.13;6.68;;;22.20;84.50;;;;;;4997675;28;20057;-82
2023/06/22 10:00:28;;;;;;;13.65;6.95;;;22.20;84.50;;;;;;4998843;28;20026;-81
2023/06/22 10:02:54;;;;;;;9.85;6.22;;;22.20;84.40;;;;;;4998859;28;20052;-82
2023/06/22 10:05:19;;;;;;;10.48;6.55;;;22.20;84.30;;;;;;4972810;28;20193;-80
2023/06/22 10:07:45;;;;;;;10.80;6.45;;;22.30;84.20;;;;;;4974140;28;20065;-81
2023/06/22 10:10:11;;;;;;;9.75;6.55;;;22.30;84.10;;;;;;4995075;28;20056;-81
2023/06/22 10:12:42;;;;;;;11.63;6.38;;;22.40;84.00;;;;;;4979884;28;20026;-82
2023/06/22 10:15:08;;;;;;;8.02;6.25;;;22.30;83.80;;;;;;4974597;28;20089;-81
2023/06/22 10:17:34;;;;;;;11.10;6.15;;;22.40;83.70;;;;;;4989642;28;20461;-82
2023/06/22 10:20:05;;;;;;;10.77;6.63;;;22.40;83.60;;;;;;4993737;28;20880;-82
2023/06/22 10:22:31;;;;;;;10.98;6.68;;;22.50;83.50;;;;;;4995561;28;20022;-82
2023/06/22 10:24:56;;;;;;;9.25;6.10;;;22.50;83.40;;;;;;4996096;28;20041;-81
2023/06/22 10:27:22;;;;;;;10.63;6.85;;;22.50;83.30;;;;;;5008208;28;20556;-82
2023/06/22 10:29:47;;;;;;;9.85;6.10;;;22.50;83.20;;;;;;4998697;28;20022;-81
2023/06/22 10:32:13;;;;;;;8.48;6.00;;;22.60;83.30;;;;;;5001040;28;20053;-82
2023/06/22 10:34:38;;;;;;;9.05;6.45;;;22.60;83.40;;;;;;5013446;28;20057;-83
2023/06/22 10:37:04;;;;;;;10.82;6.38;;;22.60;83.30;;;;;;4978596;28;20391;-81
2023/06/22 10:39:29;;;;;;;9.15;6.40;;;22.50;83.30;;;;;;5003335;28;20042;-81
2023/06/22 10:41:56;;;;;;;9.90;6.45;;;23.90;84.30;;;;;;4981064;28;20057;-83
2023/06/22 10:44:21;;;;;;;11.10;6.32;;;22.50;83.70;;;;;;4985739;28;20054;-82
2023/06/22 10:46:47;;;;;;;8.55;6.40;;;22.50;83.80;;;;;;4986278;28;20022;-83
2023/06/22 10:49:12;;;;;;;8.82;6.25;;;22.40;84.00;;;;;;4990130;28;20049;-82
2023/06/22 10:51:38;;;;;;;8.38;5.95;;;22.40;84.00;;;;;;4999449;28;20030;-82
2023/06/22 10:54:04;;;;;;;10.23;6.43;;;22.40;84.20;;;;;;4991712;28;20026;-82
2023/06/22 10:56:29;;;;;;;9.23;6.10;;;22.30;84.20;;;;;;5003305;28;20050;-83
2023/06/22 10:58:55;;;;;;;10.55;7.43;;;22.30;84.30;;;;;;5005053;28;20029;-82
2023/06/22 11:01:21;;;;;;;8.18;6.22;;;22.40;84.40;;;;;;5016786;28;20033;-81
2023/06/22 11:03:46;;;;;;;10.95;6.30;;;22.30;84.30;;;;;;4991689;28;20114;-82
2023/06/22 11:06:12;;;;;;;8.75;6.25;;;22.30;84.40;;;;;;4984709;28;20387;-80
2023/06/22 11:08:37;;;;;;;9.18;5.68;;;22.30;84.40;;;;;;4976170;28;20034;-81
2023/06/22 11:11:03;;;;;;;9.98;6.18;;;22.30;84.30;;;;;;4994955;28;20117;-82
2023/06/22 11:13:28;;;;;;;8.63;6.10;;;22.40;84.30;;;;;;4976808;28;20030;-82
2023/06/22 11:15:54;;;;;;;8.32;6.22;;;22.40;84.30;;;;;;4975627;28;20111;-83
2023/06/22 11:18:19;;;;;;;8.43;5.80;;;22.40;84.30;;;;;;4983750;28;20364;-81
2023/06/22 11:20:45;;;;;;;10.57;6.20;;;22.40;84.30;;;;;;4999944;28;20180;-81
2023/06/22 11:23:12;;;;;;;8.68;6.15;;;22.40;84.40;;;;;;5018681;28;20037;-81
2023/06/22 11:25:38;;;;;;;10.52;5.90;;;22.40;84.40;;;;;;4993837;28;20030;-83
2023/06/22 11:28:04;;;;;;;8.20;5.78;;;22.40;84.30;;;;;;5017545;28;20025;-82
2023/06/22 11:30:30;;;;;;;9.48;6.32;;;22.40;84.20;;;;;;5001418;28;20038;-82
2023/06/22 11:32:58;;;;;;;9.65;6.30;;;22.40;84.10;;;;;;5001446;28;20030;-81
2023/06/22 11:35:23;;;;;;;9.05;5.55;;;22.40;84.00;;;;;;4996516;28;20792;-82
2023/06/22 11:37:49;;;;;;;8.20;5.78;;;22.50;83.90;;;;;;4986662;28;20026;-82
2023/06/22 11:40:14;;;;;;;8.65;5.80;;;22.50;83.80;;;;;;4982090;28;20081;-81
2023/06/22 11:42:40;;;;;;;8.18;5.95;;;22.50;83.80;;;;;;4980967;28;20024;-82
2023/06/22 11:45:06;;;;;;;8.30;5.82;;;22.60;83.80;;;;;;5003413;28;20044;-83
2023/06/22 11:47:32;;;;;;;8.00;5.97;;;22.50;83.80;;;;;;4997724;28;20041;-82
2023/06/22 11:49:57;;;;;;;8.15;6.10;;;22.50;83.80;;;;;;4983658;28;20034;-82
2023/06/22 11:52:23;;;;;;;8.88;5.50;;;22.50;83.80;;;;;;4999015;28;20463;-81
2023/06/22 11:54:48;;;;;;;8.23;5.38;;;22.50;83.90;;;;;;4986113;28;20061;-83
2023/06/22 11:57:14;;;;;;;8.07;5.88;;;22.40;83.90;;;;;;4986892;28;20867;-83
2023/06/22 11:59:39;;;;;;;9.30;6.40;;;22.40;84.10;;;;;;4996933;28;20080;-82
2023/06/22 12:02:07;;;;;;;8.07;5.78;;;22.40;84.20;;;;;;5006494;28;20554;-82
2023/06/22 12:04:32;;;;;;;7.75;5.80;;;22.40;84.30;;;;;;4976254;28;20526;-83
2023/06/22 12:06:58;;;;;;;8.95;6.15;;;22.30;84.40;;;;;;4995020;28;20022;-82
2023/06/22 12:09:24;;;;;;;8.35;6.03;;;22.30;84.90;;;;;;4995062;28;20149;-83
2023/06/22 12:11:49;;;;;;;9.55;6.28;;;22.30;84.40;;;;;;5012864;28;20041;-83
2023/06/22 12:14:15;;;;;;;9.98;5.97;;;22.30;84.50;;;;;;4984103;28;20086;-84
2023/06/22 12:16:40;;;;;;;9.02;5.90;;;22.30;84.40;;;;;;4967414;28;20037;-84
2023/06/22 12:19:06;;;;;;;8.43;5.90;;;22.30;84.50;;;;;;4993968;28;20101;-84
2023/06/22 12:21:31;;;;;;;8.55;5.78;;;22.30;84.50;;;;;;4993840;28;20022;-84
2023/06/22 12:23:57;;;;;;;7.97;5.80;;;22.30;85.10;;;;;;4990310;28;20038;-84
2023/06/22 12:26:22;;;;;;;7.75;6.13;;;22.30;84.70;;;;;;4997165;28;20041;-84
2023/06/22 12:28:48;;;;;;;9.50;6.10;;;22.30;84.80;;;;;;4975837;28;20098;-82
2023/06/22 12:31:14;;;;;;;9.98;5.70;;;22.30;85.00;;;;;;4992887;28;20116;-82
2023/06/22 12:33:39;;;;;;;8.65;6.13;;;22.30;85.10;;;;;;4991769;28;20036;-82
2023/06/22 12:36:05;;;;;;;9.25;6.35;;;22.20;85.10;;;;;;4991278;28;20391;-82
2023/06/22 12:38:30;;;;;;;8.10;6.03;;;22.30;85.30;;;;;;4975257;28;20507;-84
2023/06/22 12:40:56;;;;;;;9.15;6.32;;;22.20;85.30;;;;;;4975089;28;20033;-84
2023/06/22 12:43:21;;;;;;;8.63;6.32;;;22.20;85.30;;;;;;4975076;28;20137;-84